createdAt,value
2018-01-30T00:01:04.571Z,100126.58
2018-01-30T00:03:35.615Z,100125.00
2018-01-30T00:06:06.152Z,100130.59
2018-01-30T00:08:37.838Z,100135.50
2018-01-30T00:11:08.300Z,100143.57
2018-01-30T00:13:38.992Z,100160.44
2018-01-30T00:16:09.841Z,100153.27
2018-01-30T00:18:40.713Z,100151.33
2018-01-30T00:21:12.182Z,100154.77
2018-01-30T00:23:41.834Z,100138.79
2018-01-30T00:26:12.455Z,100126.61
2018-01-30T00:28:43.436Z,100143.55
2018-01-30T00:31:14.322Z,100160.48
2018-01-30T00:33:45.400Z,100160.60
2018-01-30T00:36:16.159Z,100181.72
2018-01-30T00:38:47.541Z,100177.61
2018-01-30T00:41:19.085Z,100184.14
2018-01-30T00:43:50.040Z,100244.36
2018-01-30T00:46:20.768Z,100228.38
2018-01-30T00:48:51.649Z,100268.00
2018-01-30T00:51:22.092Z,100262.07
2018-01-30T00:53:52.874Z,100297.30
2018-01-30T00:56:22.635Z,100290.43
2018-01-30T00:58:53.265Z,100305.19
2018-01-30T01:01:24.131Z,100319.19
2018-01-30T01:03:55.469Z,100322.06
2018-01-30T01:06:26.179Z,100331.30
2018-01-30T01:08:57.947Z,100321.40
2018-01-30T01:11:28.431Z,100336.30
2018-01-30T01:13:59.296Z,100342.03
2018-01-30T01:16:30.187Z,100350.30
2018-01-30T01:19:01.876Z,100360.23
2018-01-30T01:21:32.699Z,100358.61
2018-01-30T01:24:03.685Z,100356.23
2018-01-30T01:26:34.677Z,100362.27
2018-01-30T01:29:05.272Z,100354.37
2018-01-30T01:31:35.788Z,100353.76
2018-01-30T01:34:06.867Z,100354.08
2018-01-30T01:36:37.090Z,100360.24
2018-01-30T01:39:07.400Z,100371.00
2018-01-30T01:41:38.163Z,100374.67
2018-01-30T01:44:09.560Z,100393.95
2018-01-30T01:46:40.393Z,100410.59
2018-01-30T01:49:11.206Z,100416.34
2018-01-30T01:51:41.520Z,100413.83
2018-01-30T01:54:12.895Z,100416.42
2018-01-30T01:56:43.490Z,100421.75
2018-01-30T01:59:15.109Z,100432.55
2018-01-30T02:01:44.987Z,100448.23
2018-01-30T02:04:17.483Z,100448.95
2018-01-30T02:06:48.779Z,100454.80
2018-01-30T02:09:19.258Z,100451.54
2018-01-30T02:11:49.738Z,100446.92
2018-01-30T02:14:20.352Z,100459.31
2018-01-30T02:16:50.880Z,100462.22
2018-01-30T02:19:21.403Z,100481.56
2018-01-30T02:21:51.883Z,100463.97
2018-01-30T02:24:22.903Z,100471.31
2018-01-30T02:26:53.740Z,100485.75
2018-01-30T02:29:24.615Z,100476.24
2018-01-30T02:31:55.568Z,100481.08
2018-01-30T02:34:27.147Z,100485.77
2018-01-30T02:36:57.498Z,100483.17
2018-01-30T02:39:28.287Z,100510.98
2018-01-30T02:41:58.868Z,100523.33
2018-01-30T02:44:29.826Z,100531.19
2018-01-30T02:47:00.773Z,100518.27
2018-01-30T02:49:31.739Z,100528.34
2018-01-30T02:52:02.589Z,100529.76
2018-01-30T02:54:34.194Z,100511.13
2018-01-30T02:57:04.763Z,100516.38
2018-01-30T02:59:35.675Z,100519.59
2018-01-30T03:02:07.016Z,100518.67
2018-01-30T03:04:37.881Z,100523.62
2018-01-30T03:07:08.347Z,100520.27
2018-01-30T03:09:38.960Z,100529.64
2018-01-30T03:12:09.891Z,100530.79
2018-01-30T03:14:40.808Z,100535.23
2018-01-30T03:17:11.627Z,100546.91
2018-01-30T03:19:40.958Z,100542.69
2018-01-30T03:22:11.474Z,100552.68
2018-01-30T03:24:42.118Z,100541.00
2018-01-30T03:27:13.573Z,100562.47
2018-01-30T03:29:44.977Z,100564.31
2018-01-30T03:32:15.458Z,100569.57
2018-01-30T03:34:46.156Z,100576.50
2018-01-30T03:37:17.396Z,100578.62
2018-01-30T03:39:47.872Z,100582.26
2018-01-30T03:42:18.822Z,100585.92
2018-01-30T03:44:49.249Z,100597.22
2018-01-30T03:47:19.772Z,100598.66
2018-01-30T03:49:50.802Z,100593.34
2018-01-30T03:52:21.543Z,100604.80
2018-01-30T03:54:53.208Z,100610.14
2018-01-30T03:57:24.070Z,100621.88
2018-01-30T03:59:55.642Z,100611.61
2018-01-30T04:02:26.202Z,100613.48
2018-01-30T04:04:57.176Z,100617.02
2018-01-30T04:07:28.468Z,100614.45
2018-01-30T04:09:59.380Z,100642.34
2018-01-30T04:12:30.135Z,100643.78
2018-01-30T04:15:01.528Z,100647.60
2018-01-30T04:17:32.159Z,100660.19
2018-01-30T04:20:03.182Z,100670.36
2018-01-30T04:22:34.764Z,100668.68
2018-01-30T04:25:05.679Z,100646.99
2018-01-30T04:27:36.534Z,100655.88
2018-01-30T04:30:07.584Z,100666.17
2018-01-30T04:32:38.527Z,100651.45
2018-01-30T04:35:09.073Z,100659.34
2018-01-30T04:37:39.500Z,100668.02
2018-01-30T04:40:10.518Z,100671.16
2018-01-30T04:42:41.990Z,100661.66
2018-01-30T04:45:11.211Z,100682.83
2018-01-30T04:47:42.233Z,100679.01
2018-01-30T04:50:13.747Z,100700.97
2018-01-30T04:52:44.214Z,100698.92
2018-01-30T04:55:16.199Z,100695.70
2018-01-30T04:57:47.763Z,100699.65
2018-01-30T05:00:19.253Z,100698.70
2018-01-30T05:02:49.883Z,100705.88
2018-01-30T05:05:19.105Z,100704.75
2018-01-30T05:07:49.696Z,100698.86
2018-01-30T05:10:19.696Z,100709.09
2018-01-30T05:12:51.291Z,100712.82
2018-01-30T05:15:22.143Z,100712.66
2018-01-30T05:17:53.683Z,100704.02
2018-01-30T05:20:24.212Z,100717.03
2018-01-30T05:22:55.955Z,100716.38
2018-01-30T05:25:26.496Z,100709.22
2018-01-30T05:27:58.050Z,100758.39
2018-01-30T05:30:28.549Z,100753.19
2018-01-30T05:32:59.231Z,100753.67
2018-01-30T05:35:29.417Z,100766.16
2018-01-30T05:38:00.183Z,100775.41
2018-01-30T05:40:32.763Z,100764.08
2018-01-30T05:43:03.889Z,100772.58
2018-01-30T05:45:34.753Z,100775.09
2018-01-30T05:48:05.639Z,100774.05
2018-01-30T05:50:36.391Z,100789.83
2018-01-30T05:53:08.237Z,100785.38
2018-01-30T05:55:38.930Z,100784.01
2018-01-30T05:58:09.891Z,100786.16
2018-01-30T06:00:40.987Z,100791.27
2018-01-30T06:03:12.009Z,100795.92
2018-01-30T06:05:42.863Z,100798.48
2018-01-30T06:08:13.771Z,100815.47
2018-01-30T06:10:45.326Z,100815.11
2018-01-30T06:13:16.597Z,100813.05
2018-01-30T06:15:47.764Z,100813.63
2018-01-30T06:18:18.427Z,100821.38
2018-01-30T06:20:48.927Z,100825.98
2018-01-30T06:23:19.813Z,100818.36
2018-01-30T06:25:50.706Z,100832.00
2018-01-30T06:28:21.587Z,100833.83
2018-01-30T06:30:51.600Z,100840.19
2018-01-30T06:33:23.095Z,100828.86
2018-01-30T06:35:53.795Z,100850.59
2018-01-30T06:38:24.706Z,100855.64
2018-01-30T06:40:55.597Z,100855.72
2018-01-30T06:43:26.751Z,100855.47
2018-01-30T06:45:57.623Z,100868.97
2018-01-30T06:48:29.048Z,100870.22
2018-01-30T06:50:59.285Z,100874.96
2018-01-30T06:53:30.874Z,100874.44
2018-01-30T06:56:01.358Z,100889.66
2018-01-30T06:58:31.936Z,100883.61
2018-01-30T07:01:02.791Z,100883.84
2018-01-30T07:03:33.748Z,100880.22
2018-01-30T07:06:04.609Z,100880.13
2018-01-30T07:08:35.558Z,100893.34
2018-01-30T07:11:07.009Z,100897.56
2018-01-30T07:13:37.930Z,100901.65
2018-01-30T07:16:08.439Z,100903.28
2018-01-30T07:18:38.986Z,100911.13
2018-01-30T07:21:09.555Z,100911.94
2018-01-30T07:23:41.003Z,100906.66
2018-01-30T07:26:12.186Z,100907.91
2018-01-30T07:28:42.842Z,100909.11
2018-01-30T07:31:13.700Z,100926.88
2018-01-30T07:33:44.033Z,100923.36
2018-01-30T07:36:14.536Z,100919.94
2018-01-30T07:38:45.335Z,100927.70
2018-01-30T07:41:16.203Z,100920.39
2018-01-30T07:43:47.595Z,100933.66
2018-01-30T07:46:18.873Z,100939.20
2018-01-30T07:48:49.775Z,100954.38
2018-01-30T07:51:20.619Z,100952.95
2018-01-30T07:53:51.582Z,100962.45
2018-01-30T07:56:22.510Z,100961.59
2018-01-30T07:58:54.911Z,100966.42
2018-01-30T08:01:25.472Z,100974.05
2018-01-30T08:03:55.492Z,100984.02
2018-01-30T08:06:25.920Z,100975.91
2018-01-30T08:08:56.612Z,100979.42
2018-01-30T08:11:26.984Z,100995.73
2018-01-30T08:13:57.690Z,100991.00
2018-01-30T08:16:28.212Z,100997.85
2018-01-30T08:18:59.042Z,101000.53
2018-01-30T08:21:29.893Z,101004.75
2018-01-30T08:24:00.873Z,101025.39
2018-01-30T08:26:31.714Z,101024.19
2018-01-30T08:29:02.682Z,101016.50
2018-01-30T08:31:33.577Z,101022.76
2018-01-30T08:34:04.590Z,101021.16
2018-01-30T08:36:35.591Z,101024.92
2018-01-30T08:39:07.418Z,101025.98
2018-01-30T08:41:37.931Z,101032.95
2018-01-30T08:44:08.874Z,101016.79
2018-01-30T08:46:39.996Z,101032.20
2018-01-30T08:49:10.916Z,101038.57
2018-01-30T08:51:41.744Z,101027.10
2018-01-30T08:54:12.631Z,101030.89
2018-01-30T08:56:44.491Z,101005.94
2018-01-30T08:59:14.936Z,101037.03
2018-01-30T09:01:45.769Z,101033.66
2018-01-30T09:04:16.815Z,101033.13
2018-01-30T09:06:47.682Z,101037.07
2018-01-30T09:09:18.464Z,101042.77
2018-01-30T09:11:47.914Z,101031.05
2018-01-30T09:14:17.347Z,100985.68
2018-01-30T09:16:47.508Z,101036.06
2018-01-30T09:19:18.379Z,101037.94
2018-01-30T09:21:49.760Z,101046.40
2018-01-30T09:24:20.471Z,101053.91
2018-01-30T09:26:51.963Z,101050.58
2018-01-30T09:29:22.591Z,101050.54
2018-01-30T09:31:53.539Z,101051.41
2018-01-30T09:34:24.797Z,101057.89
2018-01-30T09:36:55.627Z,101064.09
2018-01-30T09:39:26.103Z,101059.00
2018-01-30T09:41:56.353Z,101062.09
2018-01-30T09:44:25.203Z,101064.97
2018-01-30T09:46:54.354Z,101069.09
2018-01-30T09:49:23.658Z,101070.41
2018-01-30T09:51:52.951Z,101071.17
2018-01-30T09:54:21.820Z,101067.70
2018-01-30T09:56:50.807Z,101073.22
2018-01-30T09:59:19.988Z,101078.27
2018-01-30T10:01:48.227Z,101099.47
2018-01-30T10:04:17.140Z,101114.59
2018-01-30T10:06:45.997Z,101077.91
2018-01-30T10:09:14.543Z,101082.86
2018-01-30T10:11:43.748Z,101085.59
2018-01-30T10:14:12.892Z,101079.81
2018-01-30T10:16:41.863Z,101065.83
2018-01-30T10:19:10.929Z,101072.98
2018-01-30T10:21:39.661Z,101053.14
2018-01-30T10:24:08.222Z,101045.45
2018-01-30T10:26:37.127Z,101057.53
2018-01-30T10:29:06.099Z,101056.25
2018-01-30T10:31:35.225Z,101051.39
2018-01-30T10:34:03.540Z,101051.45
2018-01-30T10:36:32.672Z,101043.82
2018-01-30T10:39:01.768Z,101054.55
2018-01-30T10:41:30.911Z,101061.59
2018-01-30T10:43:59.786Z,101058.77
2018-01-30T10:46:38.177Z,101063.67
2018-01-30T10:49:07.018Z,101057.00
2018-01-30T10:51:35.916Z,101063.50
2018-01-30T10:54:04.743Z,101074.97
2018-01-30T10:56:33.850Z,101089.72
2018-01-30T10:59:02.543Z,101078.08
2018-01-30T11:01:31.671Z,101080.63
2018-01-30T11:04:00.603Z,101069.88
2018-01-30T11:06:29.490Z,101077.23
2018-01-30T11:08:58.464Z,101084.80
2018-01-30T11:11:27.353Z,101076.44
2018-01-30T11:13:56.268Z,101075.61
2018-01-30T11:16:25.203Z,101072.71
2018-01-30T11:18:54.078Z,101076.39
2018-01-30T11:21:22.972Z,101068.66
2018-01-30T11:23:51.960Z,101055.22
2018-01-30T11:26:20.823Z,101055.28
2018-01-30T11:28:49.810Z,101066.55
2018-01-30T11:31:18.792Z,101059.98
2018-01-30T11:33:47.807Z,101058.03
2018-01-30T11:36:17.022Z,101066.77
2018-01-30T11:38:45.871Z,101046.64
2018-01-30T11:41:14.844Z,101053.19
2018-01-30T11:43:43.842Z,101054.45
2018-01-30T11:46:12.897Z,101066.55
2018-01-30T11:48:41.800Z,101055.80
2018-01-30T11:51:10.995Z,101059.59
2018-01-30T11:53:40.115Z,101062.25
2018-01-30T11:56:09.023Z,101064.98
2018-01-30T11:58:37.968Z,101052.53
2018-01-30T12:01:06.974Z,101082.91
2018-01-30T12:03:35.795Z,101072.50
2018-01-30T12:06:04.916Z,101074.04
2018-01-30T12:08:33.775Z,101076.11
2018-01-30T12:11:02.690Z,101078.81
2018-01-30T12:13:31.984Z,101070.96
2018-01-30T12:16:00.976Z,101082.48
2018-01-30T12:18:29.902Z,101068.12
2018-01-30T12:20:58.856Z,101066.97
2018-01-30T12:23:27.735Z,101064.29
2018-01-30T12:25:56.740Z,101061.46
2018-01-30T12:28:25.968Z,101063.56
2018-01-30T12:30:54.868Z,101056.11
2018-01-30T12:33:23.919Z,101050.02
2018-01-30T12:35:52.897Z,101039.89
2018-01-30T12:38:21.179Z,101047.61
2018-01-30T12:40:50.041Z,101060.44
2018-01-30T12:43:19.063Z,101039.73
2018-01-30T12:45:47.811Z,101074.52
2018-01-30T12:48:17.247Z,101063.02
2018-01-30T12:50:46.636Z,101066.48
2018-01-30T12:53:15.971Z,101074.80
2018-01-30T12:55:45.377Z,101067.48
2018-01-30T12:58:14.645Z,101080.87
2018-01-30T13:00:43.928Z,101095.06
2018-01-30T13:03:13.203Z,101085.34
2018-01-30T13:05:42.461Z,101077.73
2018-01-30T13:08:11.751Z,101078.95
2018-01-30T13:10:42.415Z,101079.45
2018-01-30T13:13:13.015Z,101090.81
2018-01-30T13:15:44.179Z,101094.92
2018-01-30T13:18:15.020Z,101073.55
2018-01-30T13:20:46.183Z,101096.06
2018-01-30T13:23:17.415Z,101109.60
2018-01-30T13:25:47.669Z,101111.53
2018-01-30T13:28:19.327Z,101116.77
2018-01-30T13:30:49.390Z,101111.70
2018-01-30T13:33:20.519Z,101128.84
2018-01-30T13:35:51.155Z,101124.91
2018-01-30T13:38:25.640Z,101120.63
2018-01-30T13:40:55.427Z,101103.19
2018-01-30T13:43:24.830Z,101131.34
2018-01-30T13:45:55.605Z,101123.20
2018-01-30T13:48:25.481Z,101128.91
2018-01-30T13:50:56.348Z,101125.77
2018-01-30T13:53:27.120Z,101139.16
2018-01-30T13:55:58.200Z,101138.73
2018-01-30T13:58:29.232Z,101124.08
2018-01-30T14:01:00.566Z,101131.84
2018-01-30T14:03:30.861Z,101124.03
2018-01-30T14:06:01.739Z,101132.20
2018-01-30T14:08:33.334Z,101125.97
2018-01-30T14:11:03.570Z,101129.50
2018-01-30T14:13:34.483Z,101120.97
2018-01-30T14:16:05.360Z,101127.59
2018-01-30T14:18:36.414Z,101131.52
2018-01-30T14:21:07.994Z,101155.97
2018-01-30T14:23:38.851Z,101159.50
2018-01-30T14:26:09.828Z,101158.84
2018-01-30T14:28:40.842Z,101143.78
2018-01-30T14:31:11.768Z,101130.03
2018-01-30T14:33:41.789Z,101144.52
2018-01-30T14:36:12.702Z,101146.78
2018-01-30T14:38:44.632Z,101153.60
2018-01-30T14:41:16.266Z,101149.54
2018-01-30T14:43:47.685Z,101146.78
2018-01-30T14:46:18.395Z,101152.94
2018-01-30T14:48:48.223Z,101150.48
2018-01-30T14:51:21.311Z,101139.61
2018-01-30T14:53:52.035Z,101143.35
2018-01-30T14:56:21.820Z,101157.84
2018-01-30T14:58:51.835Z,101138.08
2018-01-30T15:01:22.525Z,101132.48
2018-01-30T15:03:52.278Z,101146.02
2018-01-30T15:06:24.744Z,101138.81
2018-01-30T15:08:54.872Z,101143.88
2018-01-30T15:11:26.532Z,101146.11
2018-01-30T15:13:58.186Z,101140.59
2018-01-30T15:16:28.471Z,101141.22
2018-01-30T15:19:00.912Z,101133.56
2018-01-30T15:21:31.230Z,101132.14
2018-01-30T15:24:01.320Z,101154.02
2018-01-30T15:26:34.074Z,101143.17
2018-01-30T15:29:04.287Z,101150.01
2018-01-30T15:31:34.619Z,101162.31
2018-01-30T15:34:05.785Z,101155.73
2018-01-30T15:36:35.935Z,101144.00
2018-01-30T15:39:06.132Z,101153.90
2018-01-30T15:41:37.851Z,101166.42
2018-01-30T15:44:08.301Z,101166.77
2018-01-30T15:46:39.161Z,101171.45
2018-01-30T15:49:11.842Z,101164.87
2018-01-30T15:51:43.214Z,101171.09
2018-01-30T15:54:13.771Z,101186.14
2018-01-30T15:56:43.884Z,101176.16
2018-01-30T15:59:15.398Z,101179.55
2018-01-30T16:01:46.895Z,101182.42
2018-01-30T16:04:17.889Z,101183.88
2018-01-30T16:06:48.275Z,101181.59
2018-01-30T16:09:18.918Z,101180.91
2018-01-30T16:11:49.258Z,101160.88
2018-01-30T16:14:19.698Z,101166.39
2018-01-30T16:16:50.111Z,101168.64
2018-01-30T16:19:20.353Z,101170.53
2018-01-30T16:21:54.624Z,101172.77
2018-01-30T16:24:28.729Z,101182.83
2018-01-30T16:26:58.796Z,101173.40
2018-01-30T16:29:28.976Z,101175.75
2018-01-30T16:31:59.799Z,101191.16
2018-01-30T16:34:31.135Z,101186.55
2018-01-30T16:37:02.131Z,101199.99
2018-01-30T16:39:32.651Z,101196.80
2018-01-30T16:42:02.880Z,101209.84
2018-01-30T16:44:33.190Z,101209.89
2018-01-30T16:47:03.403Z,101209.41
2018-01-30T16:49:33.539Z,101209.33
2018-01-30T16:52:03.775Z,101212.38
2018-01-30T16:54:34.618Z,101214.53
2018-01-30T16:57:05.545Z,101216.52
2018-01-30T16:59:36.161Z,101212.01
2018-01-30T17:02:07.279Z,101197.42
2018-01-30T17:04:37.471Z,101204.44
2018-01-30T17:07:07.556Z,101209.08
2018-01-30T17:09:37.576Z,101213.16
2018-01-30T17:12:08.975Z,101206.12
2018-01-30T17:14:39.191Z,101209.56
2018-01-30T17:17:10.570Z,101202.87
2018-01-30T17:19:42.526Z,101223.16
2018-01-30T17:22:12.384Z,101216.70
2018-01-30T17:24:42.626Z,101218.02
2018-01-30T17:27:13.831Z,101212.02
2018-01-30T17:29:44.308Z,101199.06
2018-01-30T17:32:19.934Z,101199.80
2018-01-30T17:34:50.035Z,101200.92
2018-01-30T17:37:21.051Z,101200.49
2018-01-30T17:39:54.717Z,101205.14
2018-01-30T17:42:24.837Z,101213.64
2018-01-30T17:44:56.606Z,101206.87
2018-01-30T17:47:27.438Z,101200.36
2018-01-30T17:49:57.970Z,101201.49
2018-01-30T17:52:28.473Z,101215.47
2018-01-30T17:54:58.811Z,101210.27
2018-01-30T17:57:30.501Z,101217.16
2018-01-30T18:00:01.104Z,101215.61
2018-01-30T18:02:31.795Z,101210.34
2018-01-30T18:05:02.532Z,101214.22
2018-01-30T18:07:34.729Z,101223.17
2018-01-30T18:10:05.896Z,101223.87
2018-01-30T18:12:36.609Z,101227.12
2018-01-30T18:15:07.182Z,101235.11
2018-01-30T18:17:37.631Z,101234.06
2018-01-30T18:20:08.519Z,101233.64
2018-01-30T18:22:39.229Z,101222.00
2018-01-30T18:25:09.715Z,101229.38
2018-01-30T18:27:40.207Z,101217.86
2018-01-30T18:30:10.919Z,101218.30
2018-01-30T18:32:41.566Z,101220.09
2018-01-30T18:35:12.123Z,101226.23
2018-01-30T18:37:43.177Z,101221.97
2018-01-30T18:40:13.567Z,101234.76
2018-01-30T18:42:46.327Z,101231.76
2018-01-30T18:45:16.324Z,101229.80
2018-01-30T18:47:47.628Z,101227.63
2018-01-30T18:50:18.494Z,101225.38
2018-01-30T18:52:48.970Z,101222.55
2018-01-30T18:55:19.044Z,101213.52
2018-01-30T18:57:49.731Z,101219.42
2018-01-30T19:00:20.163Z,101216.92
2018-01-30T19:02:50.677Z,101224.49
2018-01-30T19:05:22.676Z,101224.92
2018-01-30T19:07:53.107Z,101217.86
2018-01-30T19:10:26.302Z,101213.28
2018-01-30T19:12:57.161Z,101220.84
2018-01-30T19:15:31.121Z,101225.73
2018-01-30T19:18:04.251Z,101222.29
2018-01-30T19:20:37.035Z,101215.78
2018-01-30T19:23:07.700Z,101213.86
2018-01-30T19:25:38.159Z,101210.78
2018-01-30T19:28:08.756Z,101203.89
2018-01-30T19:30:39.132Z,101205.66
2018-01-30T19:33:10.702Z,101207.84
2018-01-30T19:35:42.266Z,101202.04
2018-01-30T19:38:12.686Z,101195.84
2018-01-30T19:40:43.877Z,101199.47
2018-01-30T19:43:14.383Z,101202.41
2018-01-30T19:45:44.739Z,101203.65
2018-01-30T19:48:15.351Z,101205.34
2018-01-30T19:50:45.603Z,101209.69
2018-01-30T19:53:15.994Z,101211.76
2018-01-30T19:55:47.558Z,101216.84
2018-01-30T19:58:18.462Z,101217.55
2018-01-30T20:00:50.397Z,101217.74
2018-01-30T20:03:20.979Z,101216.08
2018-01-30T20:05:52.931Z,101212.70
2018-01-30T20:08:23.043Z,101211.98
2018-01-30T20:10:53.358Z,101210.65
2018-01-30T20:13:24.581Z,101201.55
2018-01-30T20:15:54.952Z,101200.69
2018-01-30T20:18:25.364Z,101202.98
2018-01-30T20:20:57.324Z,101200.74
2018-01-30T20:23:27.985Z,101192.22
2018-01-30T20:25:58.717Z,101192.84
2018-01-30T20:28:29.224Z,101184.22
2018-01-30T20:30:59.587Z,101187.09
2018-01-30T20:33:30.122Z,101176.39
2018-01-30T20:36:00.436Z,101183.21
2018-01-30T20:38:30.829Z,101183.11
2018-01-30T20:41:01.298Z,101190.98
2018-01-30T20:43:32.420Z,101196.18
2018-01-30T20:46:02.735Z,101196.61
2018-01-30T20:48:33.139Z,101198.28
2018-01-30T20:51:03.347Z,101197.37
2018-01-30T20:53:33.623Z,101195.17
2018-01-30T20:56:04.128Z,101201.91
2018-01-30T20:58:35.967Z,101203.14
2018-01-30T21:01:06.492Z,101193.59
2018-01-30T21:03:36.872Z,101196.27
2018-01-30T21:06:07.647Z,101199.45
2018-01-30T21:08:38.222Z,101193.98
2018-01-30T21:11:08.576Z,101200.36
2018-01-30T21:13:38.636Z,101198.19
2018-01-30T21:16:09.223Z,101207.30
2018-01-30T21:18:39.436Z,101204.67
2018-01-30T21:21:10.964Z,101208.01
2018-01-30T21:23:41.219Z,101208.61
2018-01-30T21:26:11.507Z,101212.00
2018-01-30T21:28:41.717Z,101208.92
2018-01-30T21:31:12.400Z,101197.51
2018-01-30T21:33:42.640Z,101194.25
2018-01-30T21:36:12.941Z,101192.11
2018-01-30T21:38:43.342Z,101193.13
2018-01-30T21:41:13.807Z,101192.36
2018-01-30T21:43:44.929Z,101187.27
2018-01-30T21:46:15.200Z,101185.76
2018-01-30T21:48:45.360Z,101179.27
2018-01-30T21:51:15.532Z,101169.70
2018-01-30T21:53:46.191Z,101171.12
2018-01-30T21:56:17.730Z,101169.81
2018-01-30T21:58:48.517Z,101164.21
2018-01-30T22:01:18.700Z,101164.69
2018-01-30T22:03:49.002Z,101164.19
2018-01-30T22:06:20.688Z,101171.45
2018-01-30T22:08:50.357Z,101170.27
2018-01-30T22:11:20.139Z,101165.58
2018-01-30T22:13:50.631Z,101156.88
2018-01-30T22:16:21.506Z,101168.00
2018-01-30T22:18:52.286Z,101165.09
2018-01-30T22:21:23.365Z,101164.34
2018-01-30T22:23:54.091Z,101158.89
2018-01-30T22:26:24.588Z,101161.31
2018-01-30T22:28:55.163Z,101159.44
2018-01-30T22:31:25.865Z,101157.47
2018-01-30T22:33:57.059Z,101147.27
2018-01-30T22:36:27.478Z,101145.44
2018-01-30T22:38:58.066Z,101146.00
2018-01-30T22:41:28.904Z,101149.17
2018-01-30T22:43:59.846Z,101147.76
2018-01-30T22:46:29.654Z,101145.76
